createdAt,value
2022-12-27T00:00:40.276Z,93.95
2022-12-27T00:01:36.925Z,94.14
2022-12-27T00:02:33.557Z,93.95
2022-12-27T00:03:30.704Z,94.60
2022-12-27T00:04:27.809Z,94.40
2022-12-27T00:05:24.596Z,93.28
2022-12-27T00:06:23.806Z,93.89
2022-12-27T00:07:20.428Z,93.94
2022-12-27T00:08:17.072Z,93.90
2022-12-27T00:09:13.742Z,94.58
2022-12-27T00:10:11.648Z,94.85
2022-12-27T00:11:11.723Z,95.02
2022-12-27T00:12:09.000Z,94.92
2022-12-27T00:13:05.775Z,95.53
2022-12-27T00:14:04.939Z,95.36
2022-12-27T00:15:01.526Z,94.60
2022-12-27T00:16:07.776Z,93.84
2022-12-27T00:17:04.473Z,93.19
2022-12-27T00:18:01.060Z,92.40
2022-12-27T00:18:58.216Z,92.13
2022-12-27T00:19:54.977Z,93.01
2022-12-27T00:20:58.217Z,93.40
2022-12-27T00:21:54.831Z,93.79
2022-12-27T00:22:51.501Z,94.75
2022-12-27T00:23:51.870Z,94.56
2022-12-27T00:24:48.602Z,94.69
2022-12-27T00:25:45.153Z,95.02
2022-12-27T00:26:41.904Z,95.55
2022-12-27T00:27:39.101Z,95.24
2022-12-27T00:28:36.125Z,94.95
2022-12-27T00:29:32.854Z,94.55
2022-12-27T00:30:29.489Z,94.27
2022-12-27T00:31:28.323Z,93.87
2022-12-27T00:32:24.948Z,94.64
2022-12-27T00:33:21.545Z,95.42
2022-12-27T00:34:18.380Z,94.67
2022-12-27T00:35:15.154Z,94.77
2022-12-27T00:36:15.202Z,94.47
2022-12-27T00:37:11.841Z,93.83
2022-12-27T00:38:08.445Z,93.25
2022-12-27T00:39:05.633Z,92.23
2022-12-27T00:40:04.502Z,92.47
2022-12-27T00:41:02.118Z,92.71
2022-12-27T00:41:58.855Z,92.51
2022-12-27T00:42:55.424Z,93.50
2022-12-27T00:43:52.031Z,93.57
2022-12-27T00:44:48.616Z,93.80
2022-12-27T00:45:45.411Z,94.40
2022-12-27T00:46:42.070Z,93.51
2022-12-27T00:47:38.730Z,93.77
2022-12-27T00:48:35.774Z,93.77
2022-12-27T00:49:32.364Z,94.52
2022-12-27T00:50:28.927Z,95.14
2022-12-27T00:51:26.757Z,94.67
2022-12-27T00:52:23.345Z,95.77
2022-12-27T00:53:19.923Z,95.51
2022-12-27T00:54:16.699Z,96.05
2022-12-27T00:55:13.317Z,95.98
2022-12-27T00:56:19.386Z,95.39
2022-12-27T00:57:15.947Z,95.29
2022-12-27T00:58:13.185Z,94.48
2022-12-27T00:59:11.648Z,94.25
2022-12-27T01:00:10.765Z,93.10
2022-12-27T01:01:09.696Z,92.69
2022-12-27T01:02:06.327Z,93.36
2022-12-27T01:03:03.034Z,93.62
2022-12-27T01:03:59.935Z,94.46
2022-12-27T01:04:57.473Z,94.90
2022-12-27T01:05:54.266Z,95.33
2022-12-27T01:06:50.934Z,95.27
2022-12-27T01:07:47.727Z,94.82
2022-12-27T01:08:45.675Z,94.14
2022-12-27T01:09:42.324Z,94.27
2022-12-27T01:10:41.000Z,92.85
2022-12-27T01:11:37.658Z,92.73
2022-12-27T01:12:35.702Z,92.53
2022-12-27T01:13:33.089Z,92.23
2022-12-27T01:14:29.752Z,92.77
2022-12-27T01:15:26.345Z,93.46
2022-12-27T01:16:24.733Z,94.10
2022-12-27T01:17:21.355Z,94.56
2022-12-27T01:18:18.062Z,95.57
2022-12-27T01:19:14.951Z,96.01
2022-12-27T01:20:11.557Z,95.54
2022-12-27T01:21:09.848Z,96.56
2022-12-27T01:22:06.728Z,96.92
2022-12-27T01:23:03.411Z,96.37
2022-12-27T01:24:00.092Z,96.97
2022-12-27T01:24:56.719Z,96.60
2022-12-27T01:26:05.165Z,96.17
2022-12-27T01:27:01.805Z,94.71
2022-12-27T01:27:58.432Z,94.84
2022-12-27T01:28:55.125Z,93.93
2022-12-27T01:29:51.775Z,93.72
2022-12-27T01:30:48.392Z,93.90
2022-12-27T01:31:45.462Z,93.92
2022-12-27T01:32:42.087Z,94.15
2022-12-27T01:33:39.319Z,94.31
2022-12-27T01:34:35.964Z,93.96
2022-12-27T01:35:32.618Z,94.13
2022-12-27T01:36:30.884Z,94.16
2022-12-27T01:37:29.240Z,93.95
2022-12-27T01:38:25.886Z,93.33
2022-12-27T01:39:22.527Z,93.64
2022-12-27T01:40:19.234Z,94.03
2022-12-27T01:41:39.116Z,95.13
2022-12-27T01:42:55.560Z,94.94
2022-12-27T01:43:52.179Z,94.26
2022-12-27T01:44:56.914Z,93.10
2022-12-27T01:45:53.659Z,92.95
2022-12-27T01:46:50.549Z,93.75
2022-12-27T01:48:11.507Z,94.57
2022-12-27T01:49:11.612Z,95.72
2022-12-27T01:50:23.852Z,95.79
2022-12-27T01:51:21.105Z,96.58
2022-12-27T01:52:17.680Z,97.10
2022-12-27T01:53:14.243Z,96.71
2022-12-27T01:54:10.857Z,97.20
2022-12-27T01:55:18.269Z,97.08
2022-12-27T01:56:21.251Z,97.34
2022-12-27T01:57:17.889Z,96.91
2022-12-27T01:58:40.518Z,96.08
2022-12-27T01:59:38.028Z,95.84
2022-12-27T02:00:35.189Z,95.51
2022-12-27T02:01:40.410Z,96.15
2022-12-27T02:02:38.253Z,96.45
2022-12-27T02:03:46.128Z,96.70
2022-12-27T02:04:43.564Z,97.17
2022-12-27T02:05:42.411Z,97.70
2022-12-27T02:06:40.639Z,97.44
2022-12-27T02:08:00.828Z,96.64
2022-12-27T02:09:29.063Z,95.97
2022-12-27T02:10:27.991Z,96.03
2022-12-27T02:11:48.284Z,96.11
2022-12-27T02:12:44.947Z,96.75
2022-12-27T02:13:46.316Z,97.75
2022-12-27T02:14:49.141Z,97.51
2022-12-27T02:15:45.870Z,97.88
2022-12-27T02:16:42.538Z,97.87
2022-12-27T02:17:39.209Z,97.75
2022-12-27T02:18:35.834Z,97.83
2022-12-27T02:19:41.460Z,97.47
2022-12-27T02:21:19.248Z,95.86
2022-12-27T02:22:30.996Z,95.79
2022-12-27T02:24:06.844Z,95.82
2022-12-27T02:25:33.694Z,96.24
2022-12-27T02:26:42.715Z,95.97
2022-12-27T02:28:01.002Z,96.88
2022-12-27T02:29:24.637Z,97.62
2022-12-27T02:30:21.195Z,97.66
2022-12-27T02:31:29.605Z,97.81
2022-12-27T02:32:52.037Z,98.11
2022-12-27T02:33:52.082Z,97.97
2022-12-27T02:35:18.725Z,98.60
2022-12-27T02:36:22.618Z,98.83
2022-12-27T02:37:21.791Z,99.37
2022-12-27T02:38:23.795Z,98.99
2022-12-27T02:39:21.393Z,98.99
2022-12-27T02:40:40.632Z,99.58
2022-12-27T02:41:55.983Z,99.65
2022-12-27T02:43:11.868Z,99.92
2022-12-27T02:44:27.373Z,100.00
2022-12-27T02:45:48.137Z,100.00
2022-12-27T02:47:04.026Z,99.80
2022-12-27T02:48:20.225Z,99.67
2022-12-27T02:49:47.240Z,99.29
2022-12-27T02:51:47.875Z,99.14
2022-12-27T02:53:05.910Z,99.22
2022-12-27T02:54:08.339Z,98.72
2022-12-27T02:55:10.558Z,98.80
2022-12-27T02:56:31.698Z,98.15
2022-12-27T02:57:37.116Z,98.14
2022-12-27T02:58:55.356Z,98.05
2022-12-27T03:00:25.626Z,97.55
2022-12-27T03:01:55.872Z,96.92
2022-12-27T03:03:28.757Z,96.95
2022-12-27T03:04:45.124Z,96.22
2022-12-27T03:06:24.126Z,96.30
2022-12-27T03:07:38.891Z,96.59
2022-12-27T03:08:47.823Z,97.47
2022-12-27T03:10:26.568Z,98.03
2022-12-27T03:11:46.264Z,97.73
2022-12-27T03:13:20.085Z,97.98
2022-12-27T03:14:47.222Z,97.67
2022-12-27T03:16:08.874Z,98.62
2022-12-27T03:17:25.702Z,98.91
2022-12-27T03:18:49.483Z,99.25
2022-12-27T03:20:12.060Z,99.12
2022-12-27T03:21:28.459Z,99.16
2022-12-27T03:22:47.364Z,99.28
2022-12-27T03:24:04.622Z,100.00
2022-12-27T03:25:22.143Z,99.79
2022-12-27T03:26:19.827Z,99.79
2022-12-27T03:27:31.678Z,99.45
2022-12-27T03:28:50.181Z,99.67
2022-12-27T03:30:12.289Z,99.93
2022-12-27T03:31:47.650Z,100.00
2022-12-27T03:33:09.020Z,100.00
2022-12-27T03:34:35.816Z,100.00
2022-12-27T03:35:40.415Z,100.00
2022-12-27T03:36:55.936Z,100.00
2022-12-27T03:38:04.357Z,100.00
2022-12-27T03:39:15.376Z,100.00
2022-12-27T03:40:30.982Z,100.00
2022-12-27T03:41:52.414Z,99.91
2022-12-27T03:43:14.013Z,98.94
2022-12-27T03:44:24.548Z,98.49
2022-12-27T03:45:21.870Z,97.68
2022-12-27T03:46:34.186Z,96.98
2022-12-27T03:47:55.510Z,96.30
2022-12-27T03:48:58.145Z,95.98
2022-12-27T03:50:20.969Z,95.79
2022-12-27T03:51:21.413Z,96.74
2022-12-27T03:52:32.956Z,97.00
2022-12-27T03:53:42.704Z,97.71
2022-12-27T03:54:41.631Z,98.11
2022-12-27T03:55:39.110Z,98.35
2022-12-27T03:56:37.223Z,98.56
2022-12-27T03:57:34.127Z,98.57
2022-12-27T03:58:30.861Z,98.59
2022-12-27T03:59:28.369Z,98.95
2022-12-27T04:00:25.000Z,99.44
2022-12-27T04:01:21.742Z,99.31
2022-12-27T04:02:19.320Z,100.00
2022-12-27T04:03:16.273Z,100.00
2022-12-27T04:04:12.967Z,100.00
2022-12-27T04:05:09.634Z,100.00
2022-12-27T04:06:06.780Z,100.00
2022-12-27T04:07:04.484Z,100.00
2022-12-27T04:08:19.320Z,100.00
2022-12-27T04:09:34.499Z,100.00
2022-12-27T04:10:49.990Z,100.00
2022-12-27T04:12:05.306Z,100.00
2022-12-27T04:13:20.320Z,100.00
2022-12-27T04:14:35.317Z,99.51
2022-12-27T04:15:50.857Z,100.00
2022-12-27T04:17:05.821Z,100.00
2022-12-27T04:18:21.357Z,99.87
2022-12-27T04:19:36.613Z,99.58
2022-12-27T04:20:52.071Z,99.87
2022-12-27T04:22:07.254Z,100.00
2022-12-27T04:23:22.417Z,100.00
2022-12-27T04:24:37.722Z,100.00
2022-12-27T04:25:52.800Z,100.00
2022-12-27T04:27:07.636Z,100.00
2022-12-27T04:28:22.767Z,100.00
2022-12-27T04:29:37.796Z,100.00
2022-12-27T04:30:52.886Z,100.00
2022-12-27T04:32:07.939Z,100.00
2022-12-27T04:33:22.905Z,100.00
2022-12-27T04:34:38.361Z,100.00
2022-12-27T04:35:34.937Z,100.00
2022-12-27T04:36:31.505Z,100.00
2022-12-27T04:37:28.067Z,100.00
2022-12-27T04:38:24.629Z,100.00
2022-12-27T04:39:21.291Z,100.00
2022-12-27T04:40:36.577Z,100.00
2022-12-27T04:41:51.880Z,100.00
2022-12-27T04:43:07.024Z,100.00
2022-12-27T04:44:22.467Z,100.00
2022-12-27T04:45:38.008Z,100.00
2022-12-27T04:46:53.349Z,100.00
2022-12-27T04:48:08.554Z,100.00
2022-12-27T04:49:24.079Z,100.00
2022-12-27T04:50:50.781Z,100.00
2022-12-27T04:52:05.573Z,100.00
2022-12-27T04:53:20.443Z,100.00
2022-12-27T04:54:41.491Z,100.00
2022-12-27T04:55:38.127Z,100.00
2022-12-27T04:56:34.851Z,100.00
2022-12-27T04:57:31.438Z,100.00
2022-12-27T04:58:28.313Z,100.00
2022-12-27T04:59:43.546Z,100.00
2022-12-27T05:00:59.010Z,100.00
2022-12-27T05:02:04.742Z,100.00
2022-12-27T05:03:05.411Z,100.00
2022-12-27T05:04:02.063Z,100.00
2022-12-27T05:04:58.930Z,100.00
2022-12-27T05:05:55.840Z,100.00
2022-12-27T05:06:53.428Z,100.00
2022-12-27T05:08:09.227Z,100.00
2022-12-27T05:09:24.596Z,100.00
2022-12-27T05:10:40.539Z,100.00
2022-12-27T05:11:55.648Z,100.00
2022-12-27T05:13:10.909Z,100.00
2022-12-27T05:14:14.538Z,100.00
2022-12-27T05:15:11.175Z,100.00
2022-12-27T05:16:07.824Z,100.00
2022-12-27T05:17:04.434Z,100.00
2022-12-27T05:18:01.064Z,100.00
2022-12-27T05:18:58.325Z,100.00
2022-12-27T05:19:54.858Z,100.00
2022-12-27T05:20:51.551Z,100.00
2022-12-27T05:22:06.848Z,100.00
2022-12-27T05:23:22.229Z,100.00
2022-12-27T05:24:37.359Z,100.00
2022-12-27T05:25:40.047Z,100.00
2022-12-27T05:26:38.448Z,100.00
2022-12-27T05:27:35.064Z,100.00
2022-12-27T05:28:31.716Z,100.00
2022-12-27T05:29:30.192Z,100.00
2022-12-27T05:30:26.773Z,100.00
2022-12-27T05:31:24.790Z,100.00
2022-12-27T05:32:21.364Z,100.00
2022-12-27T05:33:18.066Z,100.00
2022-12-27T05:34:14.663Z,100.00
2022-12-27T05:35:11.231Z,100.00
2022-12-27T05:36:08.516Z,100.00
2022-12-27T05:37:05.017Z,100.00
2022-12-27T05:38:02.386Z,100.00
2022-12-27T05:38:59.602Z,100.00
2022-12-27T05:39:56.166Z,100.00
2022-12-27T05:40:58.345Z,100.00
2022-12-27T05:41:54.893Z,100.00
2022-12-27T05:42:51.906Z,100.00
2022-12-27T05:43:48.584Z,100.00
2022-12-27T05:44:45.186Z,100.00
2022-12-27T05:45:41.748Z,100.00
2022-12-27T05:46:38.368Z,100.00
2022-12-27T05:47:34.974Z,100.00
2022-12-27T05:48:31.620Z,100.00
2022-12-27T05:49:28.240Z,100.00
2022-12-27T05:50:24.910Z,100.00
2022-12-27T05:51:22.031Z,100.00
2022-12-27T05:52:19.211Z,100.00
2022-12-27T05:53:15.968Z,100.00
2022-12-27T05:54:12.587Z,100.00
2022-12-27T05:55:09.639Z,100.00
2022-12-27T05:56:07.006Z,100.00
2022-12-27T05:57:03.668Z,100.00
2022-12-27T05:58:00.282Z,100.00
2022-12-27T05:58:56.891Z,100.00
2022-12-27T05:59:53.496Z,100.00
2022-12-27T06:00:50.136Z,100.00
2022-12-27T06:01:46.914Z,100.00
2022-12-27T06:02:43.846Z,100.00
2022-12-27T06:03:40.749Z,100.00
2022-12-27T06:04:37.356Z,100.00
2022-12-27T06:05:34.041Z,100.00
2022-12-27T06:06:30.592Z,100.00
2022-12-27T06:07:27.277Z,100.00
2022-12-27T06:08:23.897Z,100.00
2022-12-27T06:09:20.515Z,100.00
2022-12-27T06:10:17.180Z,100.00
2022-12-27T06:11:15.985Z,100.00
2022-12-27T06:12:12.658Z,100.00
2022-12-27T06:13:09.253Z,100.00
2022-12-27T06:14:05.870Z,100.00
2022-12-27T06:15:03.115Z,100.00
2022-12-27T06:16:03.911Z,100.00
2022-12-27T06:17:00.558Z,100.00
2022-12-27T06:17:58.903Z,100.00
2022-12-27T06:18:55.563Z,100.00
2022-12-27T06:19:56.829Z,100.00
2022-12-27T06:20:53.920Z,100.00
2022-12-27T06:21:50.581Z,100.00
2022-12-27T06:22:47.697Z,100.00
2022-12-27T06:23:45.331Z,100.00
2022-12-27T06:24:41.870Z,100.00
2022-12-27T06:25:38.569Z,100.00
2022-12-27T06:26:35.238Z,100.00
2022-12-27T06:27:31.864Z,100.00
2022-12-27T06:28:28.445Z,100.00
2022-12-27T06:29:25.741Z,100.00
2022-12-27T06:30:22.411Z,100.00
2022-12-27T06:31:20.527Z,100.00
2022-12-27T06:32:17.885Z,100.00
2022-12-27T06:33:14.455Z,100.00
2022-12-27T06:34:11.397Z,100.00
2022-12-27T06:35:08.684Z,100.00
2022-12-27T06:36:10.415Z,100.00
2022-12-27T06:37:07.035Z,100.00
2022-12-27T06:38:03.637Z,100.00
2022-12-27T06:39:00.226Z,100.00
2022-12-27T06:39:57.363Z,100.00
2022-12-27T06:40:53.945Z,99.90
2022-12-27T06:41:50.894Z,99.94
2022-12-27T06:42:47.468Z,99.19
2022-12-27T06:43:45.802Z,98.90
2022-12-27T06:44:42.432Z,98.71
2022-12-27T06:45:39.574Z,98.16
2022-12-27T06:46:36.619Z,98.54
2022-12-27T06:47:33.360Z,98.36
2022-12-27T06:48:30.861Z,97.63
2022-12-27T06:49:27.556Z,97.58
2022-12-27T06:50:24.195Z,97.38
2022-12-27T06:51:21.482Z,97.80
2022-12-27T06:52:18.058Z,97.29
2022-12-27T06:53:14.597Z,96.84
2022-12-27T06:54:11.199Z,96.86
2022-12-27T06:55:07.974Z,96.96
2022-12-27T06:56:13.233Z,97.08
2022-12-27T06:57:09.815Z,96.42
2022-12-27T06:58:06.474Z,96.90
2022-12-27T06:59:04.751Z,96.97
2022-12-27T07:00:01.395Z,96.74
2022-12-27T07:00:58.056Z,95.60
2022-12-27T07:01:54.883Z,95.89
2022-12-27T07:02:51.765Z,95.72
2022-12-27T07:03:53.011Z,94.54
2022-12-27T07:04:49.678Z,93.35
2022-12-27T07:05:46.373Z,93.00
2022-12-27T07:06:42.965Z,92.44
2022-12-27T07:07:39.581Z,92.56
2022-12-27T07:08:36.482Z,92.96
2022-12-27T07:09:33.061Z,92.60
2022-12-27T07:10:29.904Z,92.23
2022-12-27T07:11:26.625Z,91.84
2022-12-27T07:12:23.224Z,91.84
2022-12-27T07:13:19.809Z,91.92
2022-12-27T07:14:16.448Z,90.97
2022-12-27T07:15:12.989Z,91.27
2022-12-27T07:16:12.447Z,91.60
2022-12-27T07:17:09.171Z,92.43
2022-12-27T07:18:05.821Z,92.60
2022-12-27T07:19:02.402Z,92.08
2022-12-27T07:19:59.118Z,91.91
2022-12-27T07:20:55.681Z,92.02
2022-12-27T07:21:52.367Z,90.97
2022-12-27T07:22:49.053Z,90.95
2022-12-27T07:23:45.695Z,91.29
2022-12-27T07:24:42.302Z,90.13
2022-12-27T07:25:38.917Z,89.44
2022-12-27T07:26:35.541Z,89.46
2022-12-27T07:27:36.514Z,89.84
2022-12-27T07:28:33.308Z,89.27
2022-12-27T07:29:29.925Z,90.06
2022-12-27T07:30:26.680Z,89.21
2022-12-27T07:31:26.541Z,89.73
2022-12-27T07:32:23.315Z,89.17
2022-12-27T07:33:19.875Z,88.81
2022-12-27T07:34:16.647Z,88.95
2022-12-27T07:35:13.393Z,88.26
2022-12-27T07:36:14.507Z,88.04
2022-12-27T07:37:11.153Z,88.28
2022-12-27T07:38:07.698Z,88.81
2022-12-27T07:39:05.435Z,88.04
2022-12-27T07:40:02.334Z,88.47
2022-12-27T07:41:00.214Z,89.19
2022-12-27T07:41:56.867Z,89.19
2022-12-27T07:42:53.493Z,89.47
2022-12-27T07:43:50.288Z,88.90
2022-12-27T07:44:46.900Z,89.39
2022-12-27T07:45:43.572Z,88.34
2022-12-27T07:46:40.204Z,88.34
2022-12-27T07:47:36.794Z,88.12
2022-12-27T07:48:33.444Z,88.00
2022-12-27T07:49:30.025Z,87.45
2022-12-27T07:50:26.644Z,87.54
2022-12-27T07:51:24.501Z,87.56
2022-12-27T07:52:21.105Z,87.58
2022-12-27T07:53:17.683Z,87.00
2022-12-27T07:54:14.320Z,87.46
2022-12-27T07:55:10.931Z,87.41
2022-12-27T07:56:10.831Z,87.19
2022-12-27T07:57:07.494Z,86.98
2022-12-27T07:58:04.203Z,86.95
2022-12-27T07:59:01.965Z,86.76
2022-12-27T07:59:58.603Z,86.93
2022-12-27T08:00:55.304Z,86.28
2022-12-27T08:02:04.225Z,85.76
2022-12-27T08:03:01.118Z,84.68
2022-12-27T08:03:57.760Z,84.78
2022-12-27T08:04:54.360Z,84.90
2022-12-27T08:05:54.390Z,83.87
2022-12-27T08:06:51.061Z,82.97
2022-12-27T08:07:47.726Z,81.83
2022-12-27T08:08:45.250Z,82.11
2022-12-27T08:09:44.939Z,82.94
2022-12-27T08:10:41.584Z,83.72
2022-12-27T08:11:38.158Z,84.49
2022-12-27T08:12:34.732Z,84.27
2022-12-27T08:13:31.328Z,83.41
2022-12-27T08:14:27.960Z,83.92
2022-12-27T08:15:24.626Z,83.42
2022-12-27T08:16:24.213Z,83.99
2022-12-27T08:17:28.082Z,84.17
2022-12-27T08:18:24.800Z,83.97
2022-12-27T08:19:21.381Z,83.58
2022-12-27T08:20:18.050Z,82.75
2022-12-27T08:21:14.930Z,82.29
2022-12-27T08:22:11.530Z,81.50
2022-12-27T08:23:08.090Z,80.80
2022-12-27T08:24:05.086Z,80.38
2022-12-27T08:25:02.117Z,79.65
2022-12-27T08:25:59.339Z,79.84
2022-12-27T08:26:55.897Z,79.68
2022-12-27T08:27:52.521Z,79.96
2022-12-27T08:28:49.209Z,80.57
2022-12-27T08:29:45.805Z,79.64
2022-12-27T08:30:44.375Z,80.09
2022-12-27T08:31:41.013Z,80.20
2022-12-27T08:32:37.608Z,81.05
2022-12-27T08:33:34.252Z,81.05
2022-12-27T08:34:31.029Z,80.10
2022-12-27T08:35:52.118Z,80.47
2022-12-27T08:36:59.531Z,81.06
2022-12-27T08:37:56.611Z,80.83
2022-12-27T08:38:56.601Z,80.80
2022-12-27T08:39:55.439Z,81.08
2022-12-27T08:40:55.611Z,80.81
2022-12-27T08:41:53.782Z,80.65
2022-12-27T08:42:50.367Z,80.37
2022-12-27T08:43:46.962Z,80.38
2022-12-27T08:44:44.149Z,79.99
2022-12-27T08:45:40.882Z,80.04
2022-12-27T08:46:37.711Z,79.16
2022-12-27T08:47:34.335Z,78.95
2022-12-27T08:48:33.626Z,78.43
2022-12-27T08:49:30.574Z,78.08
2022-12-27T08:50:28.150Z,78.43
2022-12-27T08:51:34.299Z,78.42
2022-12-27T08:52:35.509Z,77.37
2022-12-27T08:53:32.169Z,77.45
2022-12-27T08:54:28.747Z,77.56
2022-12-27T08:55:29.489Z,77.57
2022-12-27T08:56:26.403Z,76.73
2022-12-27T08:57:22.994Z,76.90
2022-12-27T08:58:19.568Z,76.70
2022-12-27T08:59:16.636Z,76.49
2022-12-27T09:00:14.037Z,76.59
2022-12-27T09:01:10.896Z,75.80
2022-12-27T09:02:07.716Z,75.30
2022-12-27T09:03:04.485Z,75.08
2022-12-27T09:04:01.100Z,75.17
2022-12-27T09:04:57.693Z,75.96
2022-12-27T09:05:54.257Z,76.05
2022-12-27T09:06:50.869Z,75.19
2022-12-27T09:07:48.158Z,76.48
2022-12-27T09:08:46.833Z,76.13
2022-12-27T09:09:43.545Z,76.04
2022-12-27T09:10:40.177Z,76.54
2022-12-27T09:11:36.952Z,75.98
2022-12-27T09:12:34.524Z,75.74
2022-12-27T09:13:31.981Z,77.19
2022-12-27T09:14:29.189Z,77.17
2022-12-27T09:15:25.774Z,76.00
2022-12-27T09:16:25.062Z,75.70
2022-12-27T09:17:21.751Z,76.11
2022-12-27T09:18:18.298Z,76.27
2022-12-27T09:19:14.932Z,75.97
2022-12-27T09:20:12.453Z,76.50
2022-12-27T09:21:12.275Z,76.70
2022-12-27T09:22:08.961Z,77.43
2022-12-27T09:23:05.486Z,76.24
2022-12-27T09:24:04.340Z,76.99
2022-12-27T09:25:00.967Z,77.26
2022-12-27T09:25:57.515Z,76.40
2022-12-27T09:26:54.187Z,77.20
2022-12-27T09:27:50.772Z,77.47
2022-12-27T09:28:48.698Z,76.78
2022-12-27T09:29:48.467Z,77.09
2022-12-27T09:30:45.314Z,76.64
2022-12-27T09:31:41.918Z,76.15
2022-12-27T09:32:38.488Z,75.99
2022-12-27T09:33:35.152Z,76.04
2022-12-27T09:34:32.104Z,75.58
2022-12-27T09:35:29.060Z,74.70
2022-12-27T09:36:30.028Z,74.74
2022-12-27T09:37:26.602Z,74.63
2022-12-27T09:38:23.357Z,74.24
2022-12-27T09:39:19.961Z,74.79
2022-12-27T09:40:19.849Z,75.84
2022-12-27T09:42:44.421Z,74.17
2022-12-27T09:43:23.964Z,74.44
2022-12-27T09:44:33.073Z,74.60
2022-12-27T09:45:44.098Z,72.88
2022-12-27T09:46:40.925Z,72.60
2022-12-27T09:47:52.408Z,72.35
2022-12-27T09:48:52.005Z,71.99
2022-12-27T09:49:53.584Z,71.52
2022-12-27T09:50:55.557Z,71.29
2022-12-27T09:51:58.199Z,71.01
2022-12-27T09:53:02.112Z,70.79
2022-12-27T09:54:12.215Z,71.33
2022-12-27T09:55:35.253Z,70.81
2022-12-27T09:56:54.599Z,71.65
2022-12-27T09:58:05.785Z,70.69
2022-12-27T09:59:31.929Z,70.30
2022-12-27T10:00:34.408Z,70.73
2022-12-27T10:01:37.303Z,70.73
2022-12-27T10:02:34.999Z,70.16
2022-12-27T10:03:32.654Z,69.83
2022-12-27T10:05:09.842Z,69.84
2022-12-27T10:06:15.650Z,69.95
2022-12-27T10:07:49.660Z,69.87
2022-12-27T10:09:07.882Z,69.67
2022-12-27T10:10:31.799Z,68.74
2022-12-27T10:11:40.163Z,70.10
2022-12-27T10:12:51.209Z,69.11
2022-12-27T10:13:59.213Z,69.38
2022-12-27T10:15:01.846Z,69.74
2022-12-27T10:16:04.320Z,68.98
2022-12-27T10:17:03.574Z,67.64
2022-12-27T10:18:20.271Z,67.04
2022-12-27T10:19:35.925Z,65.77
2022-12-27T10:20:55.472Z,65.57
2022-12-27T10:22:16.342Z,66.01
2022-12-27T10:23:19.589Z,64.94
2022-12-27T10:24:37.789Z,64.33
2022-12-27T10:25:36.149Z,63.62
2022-12-27T10:26:33.237Z,63.83
2022-12-27T10:27:30.809Z,64.17
2022-12-27T10:28:38.817Z,63.27
2022-12-27T10:29:36.679Z,63.78
2022-12-27T10:30:33.263Z,64.08
2022-12-27T10:31:31.730Z,64.60
2022-12-27T10:32:28.432Z,63.25
2022-12-27T10:33:28.740Z,63.27
2022-12-27T10:34:25.459Z,64.43
2022-12-27T10:35:22.671Z,64.53
2022-12-27T10:36:25.956Z,63.65
2022-12-27T10:37:22.745Z,63.33
2022-12-27T10:38:20.510Z,63.82
2022-12-27T10:39:19.448Z,62.32
2022-12-27T10:40:34.611Z,63.14
2022-12-27T10:41:50.260Z,62.20
2022-12-27T10:43:05.577Z,61.32
2022-12-27T10:44:04.544Z,61.71
2022-12-27T10:45:29.324Z,64.25
2022-12-27T10:46:32.976Z,63.18
2022-12-27T10:47:30.180Z,62.54
2022-12-27T10:48:47.445Z,63.08
2022-12-27T10:50:13.107Z,61.78
2022-12-27T10:51:11.912Z,62.50
2022-12-27T10:52:15.811Z,62.34
2022-12-27T10:53:30.163Z,61.41
2022-12-27T10:54:30.527Z,61.70
2022-12-27T10:55:34.400Z,61.32
2022-12-27T10:56:41.523Z,60.65
2022-12-27T10:57:38.086Z,61.78
2022-12-27T10:58:39.030Z,61.38
2022-12-27T10:59:35.832Z,60.51
2022-12-27T11:00:32.581Z,61.66
2022-12-27T11:01:32.471Z,61.31
2022-12-27T11:02:29.357Z,61.74
2022-12-27T11:03:28.913Z,61.51
2022-12-27T11:04:26.133Z,61.59
2022-12-27T11:05:25.943Z,61.03
2022-12-27T11:06:25.777Z,61.37
2022-12-27T11:07:22.348Z,61.47
2022-12-27T11:08:20.844Z,61.58
2022-12-27T11:09:20.740Z,61.35
2022-12-27T11:10:21.727Z,61.83
2022-12-27T11:11:18.278Z,62.07
2022-12-27T11:12:28.627Z,60.93
2022-12-27T11:13:25.204Z,61.06
2022-12-27T11:14:22.458Z,60.96
2022-12-27T11:15:20.224Z,60.93
2022-12-27T11:16:31.555Z,59.78
2022-12-27T11:17:46.534Z,59.83
2022-12-27T11:18:50.322Z,60.54
2022-12-27T11:19:47.889Z,58.96
2022-12-27T11:20:56.869Z,60.94
2022-12-27T11:21:55.465Z,60.73
2022-12-27T11:23:13.706Z,59.87
2022-12-27T11:24:15.625Z,58.48
2022-12-27T11:25:15.373Z,59.88
2022-12-27T11:26:20.397Z,59.73
2022-12-27T11:27:24.527Z,60.39
2022-12-27T11:28:33.969Z,59.88
2022-12-27T11:29:32.903Z,59.75
2022-12-27T11:30:31.856Z,58.34
2022-12-27T11:31:32.710Z,59.17
2022-12-27T11:32:29.389Z,59.77
2022-12-27T11:33:37.581Z,59.76
2022-12-27T11:34:37.635Z,58.97
2022-12-27T11:35:44.944Z,59.44
2022-12-27T11:36:45.706Z,58.99
2022-12-27T11:37:42.423Z,58.60
2022-12-27T11:38:42.688Z,58.51
2022-12-27T11:39:39.240Z,58.08
2022-12-27T11:40:36.190Z,57.59
2022-12-27T11:41:40.320Z,58.14
2022-12-27T11:42:49.977Z,57.77
2022-12-27T11:44:09.611Z,57.18
2022-12-27T11:45:18.462Z,57.09
2022-12-27T11:46:30.728Z,57.12
2022-12-27T11:47:57.606Z,57.77
2022-12-27T11:49:01.747Z,57.84
2022-12-27T11:50:05.919Z,58.07
2022-12-27T11:51:17.572Z,57.44
2022-12-27T11:52:33.778Z,57.56
2022-12-27T11:53:39.221Z,58.48
2022-12-27T11:55:14.232Z,58.54
2022-12-27T11:56:26.415Z,60.37
2022-12-27T11:57:56.845Z,60.37
2022-12-27T11:59:29.300Z,60.45
2022-12-27T12:00:37.837Z,59.76
2022-12-27T12:02:18.719Z,60.28
2022-12-27T12:04:09.461Z,61.05
2022-12-27T12:05:57.021Z,61.55
2022-12-27T12:06:59.354Z,62.57
2022-12-27T12:08:23.704Z,62.28
2022-12-27T12:09:40.371Z,62.35
2022-12-27T12:10:42.968Z,62.63
2022-12-27T12:11:42.341Z,62.54
2022-12-27T12:12:47.883Z,63.33
2022-12-27T12:14:20.996Z,62.85
2022-12-27T12:15:17.517Z,63.25
2022-12-27T12:17:01.024Z,64.18
2022-12-27T12:18:29.743Z,63.85
2022-12-27T12:19:59.428Z,64.58
2022-12-27T12:21:17.708Z,63.78
2022-12-27T12:22:51.208Z,63.91
2022-12-27T12:23:50.526Z,63.48
2022-12-27T12:25:01.462Z,63.40
2022-12-27T12:26:24.294Z,63.33
2022-12-27T12:27:47.024Z,63.18
2022-12-27T12:29:19.513Z,63.94
2022-12-27T12:30:37.348Z,62.58
2022-12-27T12:31:55.532Z,63.03
2022-12-27T12:33:10.801Z,61.99
2022-12-27T12:34:58.507Z,62.65
2022-12-27T12:36:10.140Z,62.22
2022-12-27T12:37:24.716Z,62.49
2022-12-27T12:38:22.645Z,61.62
2022-12-27T12:39:40.517Z,61.78
2022-12-27T12:41:11.288Z,62.08
2022-12-27T12:42:34.093Z,63.02
2022-12-27T12:43:49.421Z,62.38
2022-12-27T12:45:01.096Z,62.74
2022-12-27T12:46:08.315Z,63.71
2022-12-27T12:47:46.124Z,63.88
2022-12-27T12:48:51.579Z,62.53
2022-12-27T12:50:00.802Z,63.11
2022-12-27T12:51:09.707Z,63.47
2022-12-27T12:52:58.870Z,63.09
2022-12-27T12:54:04.517Z,62.88
2022-12-27T12:55:19.619Z,62.76
2022-12-27T12:56:22.172Z,62.98
2022-12-27T12:57:37.231Z,62.92
2022-12-27T12:58:48.901Z,62.85
2022-12-27T13:00:25.940Z,62.78
2022-12-27T13:01:59.881Z,63.20
2022-12-27T13:03:27.803Z,64.02
2022-12-27T13:04:42.078Z,64.55
2022-12-27T13:05:52.077Z,63.63
2022-12-27T13:07:30.435Z,62.92
2022-12-27T13:08:43.918Z,63.98
2022-12-27T13:10:07.799Z,64.32
2022-12-27T13:11:22.872Z,63.89
2022-12-27T13:12:37.093Z,62.34
2022-12-27T13:14:11.413Z,61.83
2022-12-27T13:15:10.627Z,61.82
2022-12-27T13:16:25.885Z,61.57
2022-12-27T13:17:35.317Z,62.45
2022-12-27T13:18:40.162Z,63.25
2022-12-27T13:20:03.374Z,62.11
2022-12-27T13:21:10.027Z,62.17
2022-12-27T13:22:25.295Z,62.10
2022-12-27T13:23:37.514Z,62.17
2022-12-27T13:24:43.256Z,62.33
2022-12-27T13:26:06.056Z,62.63
2022-12-27T13:27:11.766Z,62.48
2022-12-27T13:28:17.655Z,62.67
2022-12-27T13:29:52.720Z,62.97
2022-12-27T13:30:57.829Z,62.27
2022-12-27T13:32:15.799Z,62.61
2022-12-27T13:33:48.547Z,63.10
2022-12-27T13:35:00.767Z,63.21
2022-12-27T13:36:15.443Z,62.85
2022-12-27T13:37:30.266Z,62.58
2022-12-27T13:38:51.484Z,64.19
2022-12-27T13:40:01.111Z,63.36
2022-12-27T13:41:34.428Z,63.29
2022-12-27T13:42:54.285Z,63.70
2022-12-27T13:44:03.914Z,63.97